SWA2524 PHKO-PHNL
Flight info
| Callsign | SWA2524 |
|---|---|
| Flight time | 0h 29m |
| Altitude | 20000 |
| Route | KOA V20 HOKLA JULLE5 |
| Aircraft | B38M/M-SDE1FGHILORVWXY/HB1 |
Departure
| Time | 2026-05-05 05:08 |
|---|---|
| Airport | Ellison Onizuka Kona International Airport at Keāhole (PHKO) |
Arrival
| Time | 2026-05-05 05:37 |
|---|---|
| Airport | Daniel K. Inouye International Airport (PHNL) |
| Time | Latitude | Longitude | Altitude | Speed | Heading |
|---|---|---|---|---|---|
| 2026-05-05 04:48 | 19.73637 | -156.04205 | 51 ft | 0 kts | 95° |
| 2026-05-05 04:57 | 19.73638 | -156.04222 | 49 ft | 2 kts | 95° |
| 2026-05-05 04:57 | 19.73639 | -156.04239 | 49 ft | 2 kts | 95° |
| 2026-05-05 04:57 | 19.73641 | -156.04257 | 46 ft | 2 kts | 95° |
| 2026-05-05 04:57 | 19.73642 | -156.04274 | 45 ft | 2 kts | 95° |
| 2026-05-05 04:58 | 19.73641 | -156.04291 | 45 ft | 2 kts | 68° |
| 2026-05-05 04:58 | 19.73633 | -156.04307 | 47 ft | 2 kts | 54° |
| 2026-05-05 04:58 | 19.73623 | -156.04320 | 49 ft | 2 kts | 43° |
| 2026-05-05 04:58 | 19.73610 | -156.04331 | 48 ft | 2 kts | 29° |
| 2026-05-05 04:59 | 19.73601 | -156.04335 | 51 ft | 1 kts | 14° |
| 2026-05-05 04:59 | 19.73600 | -156.04335 | 51 ft | 0 kts | 13° |
| 2026-05-05 05:02 | 19.73601 | -156.04335 | 33 ft | 1 kts | 13° |
| 2026-05-05 05:03 | 19.73624 | -156.04331 | 50 ft | 7 kts | 10° |
| 2026-05-05 05:03 | 19.73691 | -156.04324 | 51 ft | 12 kts | 3° |
| 2026-05-05 05:03 | 19.73800 | -156.04316 | 50 ft | 19 kts | 4° |
| 2026-05-05 05:03 | 19.73954 | -156.04302 | 50 ft | 25 kts | 5° |
| 2026-05-05 05:04 | 19.74143 | -156.04288 | 52 ft | 30 kts | 3° |
| 2026-05-05 05:04 | 19.74362 | -156.04267 | 52 ft | 33 kts | 5° |
| 2026-05-05 05:04 | 19.74583 | -156.04246 | 56 ft | 16 kts | 5° |
| 2026-05-05 05:04 | 19.74694 | -156.04237 | 56 ft | 16 kts | 4° |
| 2026-05-05 05:05 | 19.74804 | -156.04226 | 58 ft | 16 kts | 4° |
| 2026-05-05 05:05 | 19.74923 | -156.04216 | 59 ft | 19 kts | 5° |
| 2026-05-05 05:05 | 19.75066 | -156.04203 | 56 ft | 23 kts | 5° |
| 2026-05-05 05:05 | 19.75236 | -156.04187 | 54 ft | 26 kts | 5° |
| 2026-05-05 05:06 | 19.75360 | -156.04232 | 52 ft | 16 kts | 276° |
| 2026-05-05 05:06 | 19.75369 | -156.04365 | 55 ft | 20 kts | 274° |
| 2026-05-05 05:06 | 19.75372 | -156.04425 | 55 ft | 1 kts | 262° |
| 2026-05-05 05:06 | 19.75370 | -156.04427 | 49 ft | 0 kts | 236° |
| 2026-05-05 05:07 | 19.75368 | -156.04428 | 51 ft | 0 kts | 212° |
| 2026-05-05 05:07 | 19.75365 | -156.04428 | 52 ft | 1 kts | 189° |
| 2026-05-05 05:07 | 19.75322 | -156.04436 | 54 ft | 15 kts | 190° |
| 2026-05-05 05:07 | 19.75010 | -156.04466 | 56 ft | 79 kts | 184° |
| 2026-05-05 05:08 | 19.74257 | -156.04533 | 50 ft | 136 kts | 184° |
| 2026-05-05 05:08 | 19.73177 | -156.04628 | 208 ft | 164 kts | 185° |
| 2026-05-05 05:08 | 19.72100 | -156.04714 | 1084 ft | 150 kts | 187° |
| 2026-05-05 05:08 | 19.71078 | -156.05134 | 1280 ft | 176 kts | 220° |
| 2026-05-05 05:09 | 19.70388 | -156.06262 | 1697 ft | 194 kts | 255° |
| 2026-05-05 05:09 | 19.70461 | -156.07687 | 2468 ft | 200 kts | 289° |
| 2026-05-05 05:09 | 19.71242 | -156.08975 | 3067 ft | 215 kts | 310° |
| 2026-05-05 05:09 | 19.72223 | -156.10207 | 3792 ft | 220 kts | 308° |
| 2026-05-05 05:10 | 19.73226 | -156.11525 | 4364 ft | 241 kts | 309° |
| 2026-05-05 05:10 | 19.74315 | -156.12940 | 5116 ft | 251 kts | 309° |
| 2026-05-05 05:10 | 19.75426 | -156.14386 | 6027 ft | 255 kts | 309° |
| 2026-05-05 05:10 | 19.76551 | -156.15867 | 6848 ft | 262 kts | 308° |
| 2026-05-05 05:11 | 19.77675 | -156.17368 | 7848 ft | 256 kts | 308° |
| 2026-05-05 05:11 | 19.78777 | -156.18846 | 8779 ft | 260 kts | 308° |
| 2026-05-05 05:11 | 19.79931 | -156.20429 | 9208 ft | 283 kts | 307° |
| 2026-05-05 05:11 | 19.81148 | -156.22157 | 9682 ft | 302 kts | 307° |
| 2026-05-05 05:12 | 19.82426 | -156.24013 | 10158 ft | 319 kts | 306° |
| 2026-05-05 05:12 | 19.83717 | -156.25959 | 10877 ft | 323 kts | 305° |
| 2026-05-05 05:12 | 19.85041 | -156.27851 | 11959 ft | 315 kts | 311° |
| 2026-05-05 05:12 | 19.86452 | -156.29579 | 13135 ft | 306 kts | 308° |
| 2026-05-05 05:13 | 19.87744 | -156.31372 | 14117 ft | 307 kts | 308° |
| 2026-05-05 05:13 | 19.89062 | -156.33173 | 14885 ft | 311 kts | 308° |
| 2026-05-05 05:13 | 19.90406 | -156.34990 | 15697 ft | 314 kts | 308° |
| 2026-05-05 05:13 | 19.91768 | -156.36822 | 16585 ft | 317 kts | 309° |
| 2026-05-05 05:14 | 19.93148 | -156.38672 | 17415 ft | 321 kts | 309° |
| 2026-05-05 05:14 | 19.94544 | -156.40540 | 18159 ft | 325 kts | 309° |
| 2026-05-05 05:14 | 19.95959 | -156.42433 | 18833 ft | 329 kts | 309° |
| 2026-05-05 05:14 | 19.97392 | -156.44350 | 19477 ft | 332 kts | 309° |
| 2026-05-05 05:15 | 19.98852 | -156.46303 | 19832 ft | 346 kts | 309° |
| 2026-05-05 05:15 | 20.00345 | -156.48404 | 19910 ft | 366 kts | 304° |
| 2026-05-05 05:15 | 20.01807 | -156.50688 | 19949 ft | 379 kts | 304° |
| 2026-05-05 05:15 | 20.03318 | -156.53024 | 19987 ft | 390 kts | 305° |
| 2026-05-05 05:16 | 20.04888 | -156.55441 | 19993 ft | 405 kts | 305° |
| 2026-05-05 05:16 | 20.06521 | -156.57948 | 19995 ft | 418 kts | 305° |
| 2026-05-05 05:16 | 20.08175 | -156.60487 | 20001 ft | 428 kts | 305° |
| 2026-05-05 05:16 | 20.09910 | -156.63152 | 20016 ft | 436 kts | 305° |
| 2026-05-05 05:17 | 20.11625 | -156.65785 | 20032 ft | 440 kts | 305° |
| 2026-05-05 05:17 | 20.13371 | -156.68469 | 20059 ft | 441 kts | 305° |
| 2026-05-05 05:17 | 20.15115 | -156.71150 | 20063 ft | 441 kts | 305° |
| 2026-05-05 05:17 | 20.16858 | -156.73832 | 20070 ft | 441 kts | 304° |
| 2026-05-05 05:18 | 20.18604 | -156.76518 | 20068 ft | 441 kts | 304° |
| 2026-05-05 05:18 | 20.20344 | -156.79198 | 20070 ft | 441 kts | 304° |
| 2026-05-05 05:18 | 20.22096 | -156.81875 | 20071 ft | 441 kts | 307° |
| 2026-05-05 05:18 | 20.24198 | -156.84244 | 20079 ft | 441 kts | 316° |
| 2026-05-05 05:19 | 20.26410 | -156.86503 | 20070 ft | 440 kts | 316° |
| 2026-05-05 05:19 | 20.28591 | -156.88721 | 20074 ft | 430 kts | 316° |
| 2026-05-05 05:19 | 20.30744 | -156.90901 | 20073 ft | 425 kts | 316° |
| 2026-05-05 05:19 | 20.32879 | -156.93060 | 20071 ft | 423 kts | 316° |
| 2026-05-05 05:20 | 20.35012 | -156.95217 | 20072 ft | 423 kts | 316° |
| 2026-05-05 05:20 | 20.37147 | -156.97377 | 19978 ft | 422 kts | 316° |
| 2026-05-05 05:20 | 20.39271 | -156.99527 | 19743 ft | 420 kts | 316° |
| 2026-05-05 05:20 | 20.41384 | -157.01666 | 19595 ft | 419 kts | 316° |
| 2026-05-05 05:21 | 20.43496 | -157.03805 | 19553 ft | 419 kts | 316° |
| 2026-05-05 05:21 | 20.45611 | -157.05950 | 19508 ft | 419 kts | 316° |
| 2026-05-05 05:21 | 20.47727 | -157.08094 | 19456 ft | 419 kts | 316° |
| 2026-05-05 05:21 | 20.49839 | -157.10237 | 19420 ft | 419 kts | 316° |
| 2026-05-05 05:22 | 20.51955 | -157.12383 | 19268 ft | 419 kts | 316° |
| 2026-05-05 05:22 | 20.54060 | -157.14520 | 19046 ft | 420 kts | 316° |
| 2026-05-05 05:22 | 20.56175 | -157.16667 | 18810 ft | 427 kts | 316° |
| 2026-05-05 05:22 | 20.58363 | -157.18890 | 18575 ft | 431 kts | 316° |
| 2026-05-05 05:23 | 20.60505 | -157.21067 | 18353 ft | 431 kts | 316° |
| 2026-05-05 05:23 | 20.62673 | -157.23271 | 18131 ft | 429 kts | 316° |
| 2026-05-05 05:23 | 20.64834 | -157.25469 | 18070 ft | 429 kts | 316° |
| 2026-05-05 05:23 | 20.66982 | -157.27674 | 18072 ft | 429 kts | 315° |
| 2026-05-05 05:24 | 20.69129 | -157.29889 | 18074 ft | 429 kts | 315° |
| 2026-05-05 05:24 | 20.71275 | -157.32102 | 18072 ft | 429 kts | 315° |
| 2026-05-05 05:24 | 20.73420 | -157.34313 | 18069 ft | 429 kts | 315° |
| 2026-05-05 05:24 | 20.75564 | -157.36525 | 18073 ft | 428 kts | 315° |
| 2026-05-05 05:25 | 20.77705 | -157.38735 | 18073 ft | 428 kts | 315° |
| 2026-05-05 05:25 | 20.79848 | -157.40947 | 17876 ft | 427 kts | 315° |
| 2026-05-05 05:25 | 20.81973 | -157.43143 | 17425 ft | 424 kts | 315° |
| 2026-05-05 05:25 | 20.84086 | -157.45326 | 16867 ft | 420 kts | 315° |
| 2026-05-05 05:26 | 20.86181 | -157.47491 | 16323 ft | 417 kts | 315° |
| 2026-05-05 05:26 | 20.88258 | -157.49638 | 15784 ft | 414 kts | 315° |
| 2026-05-05 05:26 | 20.90318 | -157.51770 | 15255 ft | 411 kts | 315° |
| 2026-05-05 05:26 | 20.92369 | -157.53892 | 14731 ft | 408 kts | 315° |
| 2026-05-05 05:27 | 20.94405 | -157.56001 | 14217 ft | 405 kts | 315° |
| 2026-05-05 05:27 | 20.96125 | -157.58356 | 13672 ft | 401 kts | 298° |
| 2026-05-05 05:27 | 20.98003 | -157.63939 | 12551 ft | 397 kts | 289° |
| 2026-05-05 05:28 | 20.98893 | -157.66728 | 12000 ft | 395 kts | 289° |
| 2026-05-05 05:28 | 20.99778 | -157.69506 | 11454 ft | 393 kts | 289° |
| 2026-05-05 05:28 | 21.00657 | -157.72265 | 10908 ft | 391 kts | 289° |
| 2026-05-05 05:28 | 21.01534 | -157.75018 | 10487 ft | 389 kts | 289° |
| 2026-05-05 05:29 | 21.02397 | -157.77731 | 10430 ft | 391 kts | 289° |
| 2026-05-05 05:29 | 21.03273 | -157.80486 | 10400 ft | 391 kts | 289° |
| 2026-05-05 05:29 | 21.04147 | -157.83238 | 10368 ft | 391 kts | 289° |
| 2026-05-05 05:29 | 21.05021 | -157.85988 | 10329 ft | 390 kts | 289° |
| 2026-05-05 05:30 | 21.05894 | -157.88742 | 10304 ft | 390 kts | 289° |
| 2026-05-05 05:30 | 21.06768 | -157.91494 | 10266 ft | 390 kts | 289° |
| 2026-05-05 05:30 | 21.07672 | -157.94171 | 10237 ft | 373 kts | 296° |
| 2026-05-05 05:30 | 21.08936 | -157.96465 | 10192 ft | 343 kts | 302° |
| 2026-05-05 05:31 | 21.10131 | -157.98579 | 10085 ft | 320 kts | 302° |
| 2026-05-05 05:31 | 21.11240 | -158.00558 | 9948 ft | 301 kts | 301° |
| 2026-05-05 05:31 | 21.12261 | -158.02383 | 9807 ft | 287 kts | 302° |
| 2026-05-05 05:31 | 21.13282 | -158.04211 | 9417 ft | 285 kts | 301° |
| 2026-05-05 05:32 | 21.14293 | -158.06026 | 8897 ft | 281 kts | 301° |
| 2026-05-05 05:32 | 21.15343 | -158.07782 | 8333 ft | 278 kts | 310° |
| 2026-05-05 05:32 | 21.16884 | -158.08954 | 7744 ft | 271 kts | 343° |
| 2026-05-05 05:32 | 21.18674 | -158.09079 | 7198 ft | 249 kts | 13° |
| 2026-05-05 05:33 | 21.20189 | -158.08392 | 6670 ft | 230 kts | 37° |
| 2026-05-05 05:33 | 21.21240 | -158.07201 | 6139 ft | 211 kts | 56° |
| 2026-05-05 05:33 | 21.22079 | -158.05973 | 5595 ft | 200 kts | 55° |
| 2026-05-05 05:33 | 21.22889 | -158.04806 | 5049 ft | 193 kts | 55° |
| 2026-05-05 05:34 | 21.23671 | -158.03686 | 4442 ft | 182 kts | 54° |
| 2026-05-05 05:34 | 21.24416 | -158.02616 | 3769 ft | 176 kts | 56° |
| 2026-05-05 05:34 | 21.25137 | -158.01575 | 3090 ft | 172 kts | 56° |
| 2026-05-05 05:34 | 21.25834 | -158.00583 | 2614 ft | 160 kts | 55° |
| 2026-05-05 05:35 | 21.26484 | -157.99666 | 2221 ft | 149 kts | 55° |
| 2026-05-05 05:35 | 21.27091 | -157.98806 | 1824 ft | 141 kts | 54° |
| 2026-05-05 05:35 | 21.27677 | -157.97976 | 1443 ft | 138 kts | 54° |
| 2026-05-05 05:35 | 21.28249 | -157.97163 | 1065 ft | 134 kts | 52° |
| 2026-05-05 05:36 | 21.28796 | -157.96387 | 917 ft | 132 kts | 54° |
| 2026-05-05 05:36 | 21.29360 | -157.95591 | 720 ft | 136 kts | 51° |
| 2026-05-05 05:36 | 21.29929 | -157.94787 | 539 ft | 134 kts | 52° |
| 2026-05-05 05:36 | 21.30484 | -157.93991 | 326 ft | 132 kts | 50° |
| 2026-05-05 05:37 | 21.31046 | -157.93209 | 179 ft | 135 kts | 51° |
| 2026-05-05 05:37 | 21.31616 | -157.92399 | 27 ft | 140 kts | 51° |
| 2026-05-05 05:37 | 21.32111 | -157.91699 | 17 ft | 85 kts | 52° |
| 2026-05-05 05:37 | 21.32363 | -157.91401 | 14 ft | 25 kts | 29° |
| 2026-05-05 05:38 | 21.32526 | -157.91333 | 17 ft | 24 kts | 7° |
| 2026-05-05 05:38 | 21.32671 | -157.91323 | 19 ft | 14 kts | 339° |
| 2026-05-05 05:38 | 21.32690 | -157.91365 | 19 ft | 6 kts | 274° |
| 2026-05-05 05:38 | 21.32691 | -157.91423 | 19 ft | 9 kts | 270° |
| 2026-05-05 05:39 | 21.32692 | -157.91503 | 19 ft | 12 kts | 270° |
| 2026-05-05 05:39 | 21.32693 | -157.91605 | 19 ft | 15 kts | 270° |
| 2026-05-05 05:39 | 21.32693 | -157.91724 | 20 ft | 17 kts | 270° |
| 2026-05-05 05:39 | 21.32703 | -157.91855 | 20 ft | 15 kts | 304° |
| 2026-05-05 05:40 | 21.32782 | -157.91898 | 19 ft | 14 kts | 336° |
| 2026-05-05 05:40 | 21.32880 | -157.91913 | 19 ft | 14 kts | 10° |
| 2026-05-05 05:40 | 21.32940 | -157.91939 | 21 ft | 6 kts | 279° |
| 2026-05-05 05:40 | 21.32944 | -157.91971 | 20 ft | 0 kts | 279° |